TimeCST,TemperatureF,Dew PointF,Humidity,Sea Level PressureIn,VisibilityMPH,Wind Direction,Wind SpeedMPH,Gust SpeedMPH,PrecipitationIn,Events,Conditions,WindDirDegrees,DateUTC
12:56 AM,33.1,28.9,85,29.91,6.0,ESE,3.5,-,N/A,,Clear,120,2012-12-01 06:56:00
1:56 AM,35.1,30.0,82,29.89,6.0,SSE,6.9,-,N/A,,Haze,150,2012-12-01 07:56:00
2:56 AM,35.1,30.0,82,29.88,6.0,SSE,6.9,-,N/A,,Haze,160,2012-12-01 08:56:00
3:56 AM,37.0,32.0,82,29.85,6.0,SSE,5.8,-,N/A,,Haze,150,2012-12-01 09:56:00
4:56 AM,37.0,33.1,86,29.84,6.0,South,8.1,-,N/A,,Clear,190,2012-12-01 10:56:00
5:28 AM,37.4,33.8,87,29.79,6.0,South,15.0,-,N/A,,Partly Cloudy,190,2012-12-01 11:28:00
5:53 AM,39.2,35.6,87,29.80,6.0,South,18.4,-,N/A,,Mostly Cloudy,190,2012-12-01 11:53:00
5:56 AM,39.0,35.1,86,29.83,6.0,South,16.1,-,N/A,,Mostly Cloudy,190,2012-12-01 11:56:00
6:56 AM,37.9,36.0,93,29.83,3.0,South,9.2,-,N/A,,Overcast,190,2012-12-01 12:56:00
7:19 AM,37.4,35.6,93,29.80,2.0,South,11.5,-,N/A,,Overcast,190,2012-12-01 13:19:00
7:30 AM,37.4,37.4,100,29.80,1.5,SSW,12.7,-,N/A,,Overcast,200,2012-12-01 13:30:00
7:56 AM,37.9,37.0,97,29.84,1.0,South,12.7,-,N/A,,Overcast,190,2012-12-01 13:56:00
8:18 AM,37.4,37.4,100,29.81,0.8,South,10.4,-,N/A,,Overcast,190,2012-12-01 14:18:00
8:35 AM,39.2,37.4,93,29.83,1.0,WSW,6.9,-,N/A,,Overcast,240,2012-12-01 14:35:00
8:56 AM,39.0,37.0,93,29.85,1.0,SSW,12.7,-,N/A,,Overcast,200,2012-12-01 14:56:00
9:11 AM,39.2,37.4,93,29.81,0.8,SSW,10.4,-,N/A,,Overcast,200,2012-12-01 15:11:00
9:31 AM,39.2,37.4,93,29.83,1.2,WSW,5.8,-,N/A,,Overcast,240,2012-12-01 15:31:00
9:52 AM,39.2,37.4,93,29.81,2.0,South,6.9,-,N/A,,Overcast,180,2012-12-01 15:52:00
9:56 AM,39.9,37.9,93,29.86,2.0,South,5.8,-,N/A,,Overcast,190,2012-12-01 15:56:00
10:24 AM,41.0,37.4,87,29.80,3.0,South,11.5,-,N/A,,Overcast,190,2012-12-01 16:24:00
10:56 AM,42.1,39.0,89,29.84,5.0,SW,8.1,-,N/A,,Mostly Cloudy,220,2012-12-01 16:56:00
11:10 AM,42.8,39.2,87,29.80,6.0,SW,8.1,-,N/A,,Scattered Clouds,220,2012-12-01 17:10:00
11:56 AM,45.0,39.0,80,29.81,7.0,SSW,10.4,-,N/A,,Partly Cloudy,200,2012-12-01 17:56:00
12:56 PM,48.9,39.9,71,29.79,9.0,SW,9.2,-,N/A,,Clear,220,2012-12-01 18:56:00
1:56 PM,54.0,39.0,57,29.75,10.0,SW,6.9,-,N/A,,Clear,220,2012-12-01 19:56:00
2:56 PM,57.9,37.0,46,29.75,10.0,SW,9.2,-,N/A,,Clear,220,2012-12-01 20:56:00
3:56 PM,55.0,37.0,51,29.78,10.0,SSE,4.6,-,N/A,,Clear,160,2012-12-01 21:56:00
4:56 PM,50.0,37.0,61,29.79,10.0,South,5.8,-,N/A,,Clear,190,2012-12-01 22:56:00
5:56 PM,50.0,37.0,61,29.80,10.0,South,4.6,-,N/A,,Clear,180,2012-12-01 23:56:00
6:56 PM,45.0,37.9,76,29.82,10.0,Calm,Calm,-,N/A,,Clear,0,2012-12-02 00:56:00
7:56 PM,42.1,36.0,79,29.84,10.0,Calm,Calm,-,N/A,,Clear,0,2012-12-02 01:56:00
8:56 PM,37.9,34.0,86,29.86,8.0,Calm,Calm,-,N/A,,Clear,0,2012-12-02 02:56:00
9:56 PM,37.9,35.1,89,29.88,9.0,NW,4.6,-,N/A,,Clear,320,2012-12-02 03:56:00
10:56 PM,33.1,30.9,92,29.90,6.0,West,4.6,-,N/A,,Clear,270,2012-12-02 04:56:00
11:56 PM,32.0,28.9,88,29.92,10.0,NNW,3.5,-,N/A,,Clear,330,2012-12-02 05:56:00